Terminal Aerodrome Forecast
Issued by NWS Albany, NY

Home | Current Version | Previous Version | Text Only | Print | Product List | Glossary On
Versions: 1 2 3 4 5 6 7 8 9 10 11 12 13 14 15 16 17 18 19
472
FTUS41 KALY 181400 AAB
TAFGFL
TAF AMD
KGFL 181400Z 1814/1912 00000KT 1 1/2SM BR BKN006 OVC010
      TEMPO 1814/1816 5SM -DZ BR SCT007 OVC015
     FM181600 VRB03KT 4SM BR VCSH OVC015
     FM190600 VRB03KT 6SM BR OVC015=

USA.gov is the U.S. government's official web portal to all federal, state and local government web resources and services.